Time;durP1;ratioP1;P1;durP2;ratioP2;P2;SDS_P1;SDS_P2;PMS_P1;PMS_P2;Temp;Humidity;BMP_temperature;BMP_pressure;BME280_temperature;BME280_humidity;BME280_pressure;Samples;Min_cycle;Max_cycle;Signal;HPM_P1;HPM_P2
2023/09/09 00:00:53;;;;;;;31.70;28.35;;;19.50;99.90;;;;;;5070855;28;20127;-76
2023/09/09 00:03:20;;;;;;;30.48;27.17;;;19.60;99.90;;;;;;5053969;28;20468;-75
2023/09/09 00:05:45;;;;;;;30.23;26.98;;;19.50;99.90;;;;;;5054456;28;20052;-75
2023/09/09 00:08:11;;;;;;;30.60;27.05;;;19.50;99.90;;;;;;5071285;28;20048;-75
2023/09/09 00:10:39;;;;;;;31.45;27.25;;;19.40;99.90;;;;;;5072374;28;20041;-75
2023/09/09 00:13:06;;;;;;;29.65;26.45;;;19.40;99.90;;;;;;5071333;28;20770;-75
2023/09/09 00:15:33;;;;;;;29.63;25.73;;;19.40;99.90;;;;;;5071069;28;20555;-75
2023/09/09 00:18:00;;;;;;;29.90;26.70;;;19.30;99.90;;;;;;5053571;28;20404;-75
2023/09/09 00:20:36;;;;;;;27.70;24.80;;;19.30;99.90;;;;;;5054191;28;20056;-75
2023/09/09 00:23:09;;;;;;;26.67;23.77;;;19.30;99.90;;;;;;5049285;28;20046;-75
2023/09/09 00:25:38;;;;;;;28.10;25.10;;;19.20;99.90;;;;;;5033855;28;20404;-75
2023/09/09 00:28:05;;;;;;;28.15;25.10;;;19.20;99.90;;;;;;5051778;28;20075;-75
2023/09/09 00:30:31;;;;;;;32.28;26.92;;;19.10;99.90;;;;;;5054358;28;20036;-76
2023/09/09 00:32:58;;;;;;;32.88;27.75;;;19.10;99.90;;;;;;5053163;28;20043;-75
2023/09/09 00:35:23;;;;;;;32.58;29.17;;;19.10;99.90;;;;;;5071908;28;20044;-75
2023/09/09 00:37:49;;;;;;;30.58;27.27;;;19.00;99.90;;;;;;5052994;28;20139;-75
2023/09/09 00:40:15;;;;;;;31.65;28.25;;;19.00;99.90;;;;;;5071997;28;20044;-75
2023/09/09 00:42:43;;;;;;;30.58;27.38;;;18.90;99.90;;;;;;5053443;28;20040;-75
2023/09/09 00:45:10;;;;;;;33.88;28.05;;;18.90;99.90;;;;;;5052894;28;20036;-75
2023/09/09 00:47:37;;;;;;;33.13;29.65;;;18.90;99.90;;;;;;5057347;28;20073;-75
2023/09/09 00:50:05;;;;;;;33.53;29.95;;;18.90;99.90;;;;;;5056650;28;20059;-75
2023/09/09 00:52:31;;;;;;;34.83;31.17;;;18.80;99.90;;;;;;5057459;28;20044;-75
2023/09/09 00:54:58;;;;;;;33.40;29.80;;;18.80;99.90;;;;;;5057229;28;20052;-75
2023/09/09 00:57:26;;;;;;;33.40;29.85;;;18.80;99.90;;;;;;5056195;28;20037;-75
2023/09/09 00:59:52;;;;;;;31.67;28.45;;;18.80;99.90;;;;;;5074782;28;20102;-75
2023/09/09 01:02:17;;;;;;;32.63;29.13;;;18.80;99.90;;;;;;5053780;28;20451;-75
2023/09/09 01:04:43;;;;;;;33.33;29.88;;;18.80;99.90;;;;;;5066285;28;20045;-75
2023/09/09 01:07:09;;;;;;;31.60;28.30;;;18.80;99.90;;;;;;5074280;28;20108;-75
2023/09/09 01:09:35;;;;;;;32.97;29.50;;;18.80;99.90;;;;;;5074818;28;20046;-76
2023/09/09 01:12:00;;;;;;;34.28;30.63;;;18.80;99.90;;;;;;5056386;28;20056;-75
2023/09/09 01:14:29;;;;;;;33.88;30.25;;;18.80;99.90;;;;;;5075151;28;20109;-76
2023/09/09 01:16:58;;;;;;;36.22;29.60;;;18.70;99.90;;;;;;5056806;28;20437;-76
2023/09/09 01:19:25;;;;;;;33.13;29.58;;;18.70;99.90;;;;;;5052525;28;20056;-75
2023/09/09 01:21:53;;;;;;;33.53;29.90;;;18.70;99.90;;;;;;5054159;28;20040;-75
2023/09/09 01:24:20;;;;;;;32.45;28.98;;;18.70;99.90;;;;;;5055072;28;20068;-75
2023/09/09 01:26:46;;;;;;;35.75;30.33;;;18.70;99.90;;;;;;5035894;28;20075;-76
2023/09/09 01:29:12;;;;;;;34.00;30.27;;;18.70;99.90;;;;;;5065384;28;20051;-76
2023/09/09 01:31:38;;;;;;;31.88;28.42;;;18.70;99.90;;;;;;5056716;28;20078;-76
2023/09/09 01:34:04;;;;;;;29.80;26.55;;;18.60;99.90;;;;;;5055862;28;20048;-76
2023/09/09 01:36:30;;;;;;;29.48;26.27;;;18.60;99.90;;;;;;5074779;28;20033;-75
2023/09/09 01:38:56;;;;;;;31.02;26.00;;;18.60;99.90;;;;;;5073366;28;20053;-75
2023/09/09 01:41:22;;;;;;;28.88;25.27;;;18.50;99.90;;;;;;5073313;28;20044;-75
2023/09/09 01:43:48;;;;;;;32.95;29.35;;;18.50;99.90;;;;;;5055621;28;20052;-74
2023/09/09 01:46:13;;;;;;;32.03;28.63;;;18.50;99.90;;;;;;5073575;28;20047;-74
2023/09/09 01:48:39;;;;;;;32.83;29.15;;;18.40;99.90;;;;;;5074179;28;20123;-74
2023/09/09 01:51:06;;;;;;;33.65;29.83;;;18.50;99.90;;;;;;5055982;28;20040;-74
2023/09/09 01:53:35;;;;;;;31.65;28.25;;;18.40;99.90;;;;;;5055066;28;20045;-74
2023/09/09 01:56:01;;;;;;;34.08;28.10;;;18.40;99.90;;;;;;5055775;28;20055;-75
2023/09/09 01:58:26;;;;;;;28.23;25.15;;;18.30;99.90;;;;;;5056123;28;20032;-74
2023/09/09 02:00:52;;;;;;;28.38;25.38;;;18.30;99.90;;;;;;5072541;28;20488;-75
2023/09/09 02:03:18;;;;;;;28.85;25.42;;;18.20;99.90;;;;;;5073499;28;20392;-75
2023/09/09 02:05:44;;;;;;;29.30;26.05;;;18.20;99.90;;;;;;5055896;28;20076;-74
2023/09/09 02:08:10;;;;;;;31.48;27.30;;;18.20;99.90;;;;;;5072700;28;20284;-74
2023/09/09 02:10:36;;;;;;;31.85;28.25;;;18.20;99.90;;;;;;5073893;28;20124;-74
2023/09/09 02:13:01;;;;;;;32.42;28.40;;;18.10;99.90;;;;;;5073490;28;20123;-74
2023/09/09 02:15:27;;;;;;;35.70;29.25;;;18.10;99.90;;;;;;5055448;28;20052;-74
2023/09/09 02:17:53;;;;;;;33.40;29.27;;;18.10;99.90;;;;;;5055141;28;20064;-74
2023/09/09 02:20:18;;;;;;;31.15;27.60;;;18.10;99.90;;;;;;5055625;28;20075;-74
2023/09/09 02:22:44;;;;;;;29.73;26.45;;;18.10;99.90;;;;;;5055173;28;20039;-74
2023/09/09 02:25:10;;;;;;;28.92;25.83;;;18.10;99.90;;;;;;5054701;28;20058;-74
2023/09/09 02:27:35;;;;;;;27.35;24.48;;;18.00;99.90;;;;;;5055914;28;20041;-74
2023/09/09 02:30:01;;;;;;;28.98;25.83;;;18.00;99.90;;;;;;5072401;28;20624;-74
2023/09/09 02:32:27;;;;;;;24.88;22.27;;;17.90;99.90;;;;;;5073147;28;20544;-74
2023/09/09 02:34:53;;;;;;;26.95;23.05;;;17.90;99.90;;;;;;5054637;28;20048;-74
2023/09/09 02:37:22;;;;;;;26.58;23.83;;;17.80;99.90;;;;;;5072809;28;20124;-74
2023/09/09 02:39:50;;;;;;;27.80;24.67;;;17.80;99.90;;;;;;5072346;28;20377;-74
2023/09/09 02:42:21;;;;;;;27.52;24.50;;;17.70;99.90;;;;;;5072720;28;20440;-74
2023/09/09 02:44:50;;;;;;;28.92;25.08;;;17.70;99.90;;;;;;5071995;28;20074;-74
2023/09/09 02:47:19;;;;;;;28.10;25.08;;;17.70;99.90;;;;;;5055500;28;20048;-74
2023/09/09 02:49:45;;;;;;;29.58;25.83;;;17.70;99.90;;;;;;5072499;28;20040;-75
2023/09/09 02:52:11;;;;;;;28.48;25.48;;;17.70;99.90;;;;;;5072727;28;20524;-74
2023/09/09 02:54:38;;;;;;;28.95;25.55;;;17.70;99.90;;;;;;5054604;28;20051;-74
2023/09/09 02:57:04;;;;;;;31.10;25.40;;;17.70;99.90;;;;;;5071856;28;20499;-74
2023/09/09 02:59:32;;;;;;;27.88;24.88;;;17.60;99.90;;;;;;5054884;28;20118;-74
2023/09/09 03:01:59;;;;;;;28.27;25.25;;;17.60;99.90;;;;;;5072566;28;20048;-74
2023/09/09 03:04:24;;;;;;;27.17;24.25;;;17.60;99.90;;;;;;5072144;28;20226;-74
2023/09/09 03:06:50;;;;;;;27.83;24.92;;;17.50;99.90;;;;;;5054721;28;20131;-74
2023/09/09 03:09:16;;;;;;;28.30;25.13;;;17.50;99.90;;;;;;5054206;28;20408;-75
2023/09/09 03:11:42;;;;;;;29.20;26.08;;;17.50;99.90;;;;;;5051922;28;20041;-74
2023/09/09 03:14:08;;;;;;;28.50;25.08;;;17.50;99.90;;;;;;5034785;28;20084;-74
2023/09/09 03:16:35;;;;;;;27.35;24.25;;;17.40;99.90;;;;;;5035043;28;20049;-74
2023/09/09 03:19:01;;;;;;;27.08;24.27;;;17.40;99.90;;;;;;5064274;28;20106;-74
2023/09/09 03:21:26;;;;;;;27.48;24.58;;;17.40;99.90;;;;;;5073075;28;20476;-74
2023/09/09 03:23:52;;;;;;;27.45;24.52;;;17.30;99.90;;;;;;5054445;28;20556;-74
2023/09/09 03:26:22;;;;;;;29.42;26.30;;;17.30;99.90;;;;;;5071939;28;20430;-74
2023/09/09 03:28:51;;;;;;;28.00;24.95;;;17.30;99.90;;;;;;5072272;28;20132;-74
2023/09/09 03:31:17;;;;;;;29.05;25.98;;;17.20;99.90;;;;;;5072896;28;20045;-74
2023/09/09 03:33:43;;;;;;;28.45;25.35;;;17.20;99.90;;;;;;5072082;28;20079;-74
2023/09/09 03:36:09;;;;;;;27.80;24.77;;;17.20;99.90;;;;;;5050210;28;20056;-74
2023/09/09 03:38:35;;;;;;;28.10;25.08;;;17.20;99.90;;;;;;5033923;28;20052;-74
2023/09/09 03:41:05;;;;;;;28.70;25.60;;;17.10;99.90;;;;;;5051415;28;20053;-74
2023/09/09 03:43:31;;;;;;;27.23;23.38;;;17.10;99.90;;;;;;5034474;28;20055;-74
2023/09/09 03:45:57;;;;;;;26.25;23.52;;;17.10;99.90;;;;;;5066911;28;20120;-75
2023/09/09 03:48:24;;;;;;;25.40;22.08;;;17.10;99.90;;;;;;5054340;28;20090;-77
2023/09/09 03:50:49;;;;;;;26.10;23.30;;;17.10;99.90;;;;;;5072263;28;20098;-77
2023/09/09 03:53:15;;;;;;;22.33;20.02;;;17.10;99.90;;;;;;5053570;28;20423;-74
2023/09/09 03:55:44;;;;;;;19.02;17.13;;;17.00;99.90;;;;;;5034443;28;20049;-73
2023/09/09 03:58:09;;;;;;;17.85;16.15;;;17.00;99.90;;;;;;5046498;28;20561;-74
2023/09/09 04:00:36;;;;;;;20.02;18.00;;;17.00;99.90;;;;;;5051609;28;20457;-73
2023/09/09 04:03:02;;;;;;;18.92;17.02;;;17.00;99.90;;;;;;5033613;28;20037;-73
2023/09/09 04:05:28;;;;;;;18.50;16.60;;;16.90;99.90;;;;;;5052530;28;20037;-74
2023/09/09 04:07:58;;;;;;;18.50;16.55;;;16.90;99.90;;;;;;5069998;28;20123;-74
2023/09/09 04:10:23;;;;;;;19.63;16.80;;;16.90;99.90;;;;;;5070967;28;20094;-74
2023/09/09 04:12:49;;;;;;;18.35;16.50;;;16.90;99.90;;;;;;5053617;28;20555;-74
2023/09/09 04:15:17;;;;;;;21.75;19.48;;;16.90;99.90;;;;;;5070055;28;20049;-74
2023/09/09 04:17:43;;;;;;;22.10;19.48;;;16.90;99.90;;;;;;5071890;28;20041;-74
2023/09/09 04:20:09;;;;;;;19.85;17.85;;;16.90;99.90;;;;;;5069871;28;20109;-74
2023/09/09 04:22:35;;;;;;;18.23;16.25;;;16.90;99.90;;;;;;5051376;28;20049;-74
2023/09/09 04:25:01;;;;;;;19.10;17.10;;;16.90;99.90;;;;;;5069168;28;20199;-74
2023/09/09 04:27:26;;;;;;;17.42;15.73;;;16.90;99.90;;;;;;5053504;28;20037;-73
2023/09/09 04:29:52;;;;;;;20.10;18.00;;;16.80;99.90;;;;;;5063975;28;20044;-73
2023/09/09 04:32:18;;;;;;;21.15;18.88;;;16.80;99.90;;;;;;5073545;28;20045;-74
2023/09/09 04:34:44;;;;;;;18.38;16.50;;;16.80;99.90;;;;;;5075406;28;20045;-74
2023/09/09 04:37:09;;;;;;;20.33;18.10;;;16.70;99.90;;;;;;5073805;28;20052;-74
2023/09/09 04:39:35;;;;;;;22.92;20.00;;;16.80;99.90;;;;;;5075234;28;20067;-74
2023/09/09 04:42:01;;;;;;;25.05;21.77;;;16.70;99.90;;;;;;5056747;28;20127;-74
2023/09/09 04:44:26;;;;;;;26.05;22.90;;;16.80;99.90;;;;;;5054044;28;20044;-74
2023/09/09 04:46:52;;;;;;;27.40;24.38;;;16.80;99.90;;;;;;5054832;28;20047;-73
2023/09/09 04:49:18;;;;;;;26.35;23.02;;;16.70;99.90;;;;;;5037114;28;20129;-74
2023/09/09 04:51:44;;;;;;;25.60;22.50;;;16.70;99.90;;;;;;5037329;28;20548;-73
2023/09/09 04:54:10;;;;;;;25.13;22.42;;;16.70;99.90;;;;;;5061380;28;20068;-73
2023/09/09 04:56:35;;;;;;;24.13;21.52;;;16.70;99.90;;;;;;5052911;28;20147;-73
2023/09/09 04:59:01;;;;;;;27.13;22.90;;;16.70;99.90;;;;;;5063295;28;20044;-74
2023/09/09 05:01:27;;;;;;;26.77;23.25;;;16.70;99.90;;;;;;5057366;28;20048;-73
2023/09/09 05:03:52;;;;;;;25.98;22.75;;;16.70;99.90;;;;;;5074121;28;20511;-73
2023/09/09 05:06:18;;;;;;;24.20;21.48;;;16.60;99.90;;;;;;5074619;28;20044;-74
2023/09/09 05:08:45;;;;;;;21.40;18.55;;;16.60;99.90;;;;;;5056727;28;20133;-74
2023/09/09 05:11:10;;;;;;;21.20;17.95;;;16.60;99.90;;;;;;5073979;28;20048;-73
2023/09/09 05:13:36;;;;;;;20.70;18.50;;;16.60;99.90;;;;;;5053589;28;20037;-73
2023/09/09 05:16:02;;;;;;;22.58;19.63;;;16.60;99.90;;;;;;5036670;28;20049;-74
2023/09/09 05:18:28;;;;;;;25.63;20.30;;;16.60;99.90;;;;;;5054248;28;20047;-73
2023/09/09 05:20:54;;;;;;;24.88;22.17;;;16.60;99.90;;;;;;5047144;28;20040;-74
2023/09/09 05:23:19;;;;;;;29.23;24.25;;;16.60;99.90;;;;;;5080327;28;20127;-74
2023/09/09 05:25:45;;;;;;;25.73;22.85;;;16.60;99.90;;;;;;5064996;28;20085;-74
2023/09/09 05:28:11;;;;;;;27.92;23.23;;;16.60;99.90;;;;;;5058149;28;20476;-73
2023/09/09 05:30:40;;;;;;;23.27;20.63;;;16.70;99.90;;;;;;5056405;28;20051;-74
2023/09/09 05:33:06;;;;;;;24.70;22.10;;;16.70;99.90;;;;;;5055362;28;20500;-74
2023/09/09 05:35:32;;;;;;;23.55;20.98;;;16.70;99.90;;;;;;5074053;28;20044;-74
2023/09/09 05:37:57;;;;;;;23.02;20.63;;;16.70;99.90;;;;;;5074012;28;20084;-74
2023/09/09 05:40:23;;;;;;;24.17;20.10;;;16.70;99.90;;;;;;5055719;28;20064;-74
2023/09/09 05:42:48;;;;;;;23.80;20.80;;;16.70;99.90;;;;;;5074063;28;20041;-74
2023/09/09 05:45:14;;;;;;;25.35;21.75;;;16.80;99.90;;;;;;5074574;28;20048;-74
2023/09/09 05:47:42;;;;;;;25.92;21.92;;;16.80;99.90;;;;;;5073629;28;20037;-74
2023/09/09 05:50:08;;;;;;;24.35;21.48;;;16.90;99.90;;;;;;5073680;28;20388;-74
2023/09/09 05:52:34;;;;;;;26.63;22.55;;;16.90;99.90;;;;;;5073381;28;20040;-74
2023/09/09 05:54:59;;;;;;;25.15;21.13;;;17.00;99.90;;;;;;5074043;28;20093;-74
2023/09/09 05:57:25;;;;;;;22.25;19.88;;;17.00;99.90;;;;;;5073522;28;20161;-74
2023/09/09 05:59:51;;;;;;;23.35;19.33;;;17.10;99.90;;;;;;5072619;28;20055;-75
2023/09/09 06:02:17;;;;;;;21.45;19.25;;;17.10;99.90;;;;;;5055971;28;20041;-74
2023/09/09 06:04:49;;;;;;;21.23;19.27;;;17.10;99.90;;;;;;5073785;28;20048;-74
2023/09/09 06:07:15;;;;;;;22.85;20.75;;;17.20;99.90;;;;;;5072036;28;20098;-75
2023/09/09 06:09:41;;;;;;;26.58;24.08;;;17.20;99.90;;;;;;5055865;28;20103;-74
2023/09/09 06:12:06;;;;;;;26.73;24.13;;;17.30;99.90;;;;;;5055232;28;20751;-74
2023/09/09 06:14:32;;;;;;;28.73;25.75;;;17.30;99.90;;;;;;5055285;28;20048;-74
2023/09/09 06:16:58;;;;;;;27.70;24.65;;;17.40;99.90;;;;;;5055115;28;20388;-74
2023/09/09 06:19:23;;;;;;;24.95;22.55;;;17.50;99.90;;;;;;5073713;28;20036;-74
2023/09/09 06:21:49;;;;;;;24.13;21.90;;;17.50;99.90;;;;;;5072302;28;20208;-74
2023/09/09 06:24:15;;;;;;;24.50;22.30;;;17.60;99.90;;;;;;5054550;28;20056;-74
2023/09/09 06:26:40;;;;;;;25.05;22.75;;;17.70;99.90;;;;;;5072809;28;20044;-74
2023/09/09 06:29:06;;;;;;;24.65;22.17;;;17.80;99.90;;;;;;5053645;28;20944;-75
2023/09/09 06:31:32;;;;;;;26.20;23.60;;;17.90;99.90;;;;;;5054557;28;20044;-75
2023/09/09 06:33:58;;;;;;;27.17;24.45;;;18.00;99.90;;;;;;5054103;28;20041;-74
2023/09/09 06:36:23;;;;;;;29.00;26.13;;;18.10;99.90;;;;;;5054564;28;20464;-75
2023/09/09 06:38:50;;;;;;;29.65;26.73;;;18.20;99.90;;;;;;5072407;28;20052;-75
2023/09/09 06:41:16;;;;;;;31.92;28.60;;;18.30;99.90;;;;;;5073291;28;20051;-81
2023/09/09 06:43:46;;;;;;;33.25;29.80;;;18.40;99.90;;;;;;5072270;28;20047;-83
2023/09/09 06:46:12;;;;;;;36.42;32.63;;;18.50;99.90;;;;;;5072370;28;20052;-81
2023/09/09 06:48:37;;;;;;;37.38;33.47;;;18.60;99.90;;;;;;5050733;28;20045;-82
2023/09/09 06:51:03;;;;;;;40.70;36.28;;;18.70;99.90;;;;;;5058195;28;20048;-81
2023/09/09 06:53:29;;;;;;;44.45;38.38;;;18.90;99.90;;;;;;5072399;28;20395;-83
2023/09/09 06:55:54;;;;;;;51.30;43.17;;;19.00;99.90;;;;;;5070589;28;20044;-81
2023/09/09 06:58:20;;;;;;;64.22;50.95;;;19.10;99.90;;;;;;5051943;28;20084;-85
2023/09/09 07:00:50;;;;;;;83.93;61.88;;;19.30;99.90;;;;;;5054807;28;20051;-84
2023/09/09 07:03:19;;;;;;;96.07;69.57;;;19.40;99.90;;;;;;5072211;28;20036;-81
2023/09/09 07:05:45;;;;;;;101.95;73.97;;;19.60;99.90;;;;;;5054059;28;20056;-75
2023/09/09 07:08:11;;;;;;;103.75;75.43;;;19.70;99.90;;;;;;5072349;28;20045;-79
2023/09/09 07:10:37;;;;;;;99.60;73.88;;;19.80;99.90;;;;;;5054030;28;20055;-77
2023/09/09 07:13:03;;;;;;;95.68;70.10;;;19.90;99.90;;;;;;5072425;28;20121;-79
2023/09/09 07:15:29;;;;;;;93.95;70.75;;;20.10;99.90;;;;;;5072625;28;20032;-81
2023/09/09 07:17:55;;;;;;;93.85;67.88;;;20.20;99.90;;;;;;5071493;28;20045;-81
2023/09/09 07:20:21;;;;;;;92.05;71.18;;;20.40;99.90;;;;;;5052820;28;20499;-79
2023/09/09 07:22:47;;;;;;;97.05;73.75;;;20.60;99.90;;;;;;5054387;28;20484;-79
2023/09/09 07:25:13;;;;;;;100.70;74.22;;;21.40;99.90;;;;;;5053721;28;20055;-78
2023/09/09 07:27:39;;;;;;;83.75;65.22;;;22.70;99.90;;;;;;5054604;28;20068;-75
2023/09/09 07:30:05;;;;;;;76.43;63.63;;;24.10;99.90;;;;;;5053818;28;20083;-74
2023/09/09 07:32:37;;;;;;;72.40;59.35;;;25.50;99.90;;;;;;5053882;28;20041;-81
2023/09/09 07:35:04;;;;;;;69.43;57.25;;;26.60;99.90;;;;;;5052094;28;20110;-83
2023/09/09 07:37:29;;;;;;;72.25;60.35;;;27.60;99.90;;;;;;5053153;28;20052;-80
2023/09/09 07:39:57;;;;;;;68.45;58.55;;;28.50;99.90;;;;;;5069592;28;20147;-79
2023/09/09 07:42:22;;;;;;;64.75;55.65;;;29.10;99.90;;;;;;5053107;28;20097;-80
2023/09/09 07:44:48;;;;;;;61.63;51.70;;;29.60;99.90;;;;;;5070936;28;20441;-79
2023/09/09 07:47:13;;;;;;;58.10;51.78;;;30.30;99.90;;;;;;5052415;28;20033;-84
2023/09/09 07:49:39;;;;;;;57.78;51.45;;;30.80;99.90;;;;;;5070942;28;20169;-83
2023/09/09 07:52:05;;;;;;;55.03;49.00;;;31.30;99.60;;;;;;5052130;28;20044;-82
2023/09/09 07:54:31;;;;;;;53.03;47.35;;;31.70;99.30;;;;;;5053839;28;20123;-82
2023/09/09 07:56:58;;;;;;;52.08;46.50;;;32.00;97.30;;;;;;5075170;28;20119;-81
2023/09/09 07:59:25;;;;;;;50.60;45.08;;;32.50;98.00;;;;;;5057558;28;20044;-79
2023/09/09 08:01:50;;;;;;;48.22;43.08;;;32.60;96.90;;;;;;5075734;28;20043;-83
2023/09/09 08:04:16;;;;;;;44.53;39.92;;;33.10;96.60;;;;;;5076211;28;20040;-83
2023/09/09 08:06:42;;;;;;;44.97;40.28;;;33.40;95.30;;;;;;5056800;28;20040;-83
2023/09/09 08:09:07;;;;;;;45.28;40.30;;;33.60;94.60;;;;;;5053383;28;20044;-84
2023/09/09 08:11:33;;;;;;;42.78;38.38;;;34.10;94.00;;;;;;5054695;28;20553;-84
2023/09/09 08:13:59;;;;;;;44.85;39.97;;;34.20;94.40;;;;;;5056333;28;20119;-85
2023/09/09 08:16:25;;;;;;;43.38;38.70;;;34.50;93.80;;;;;;5074082;28;20040;-85
2023/09/09 08:18:51;;;;;;;46.70;41.70;;;34.50;93.60;;;;;;5057184;28;20068;-85
2023/09/09 08:21:16;;;;;;;117.75;44.63;;;34.50;93.50;;;;;;5072748;28;20059;-81
2023/09/09 08:23:42;;;;;;;36.13;32.15;;;34.80;93.10;;;;;;5055837;28;20093;-82
2023/09/09 08:26:09;;;;;;;31.83;28.50;;;35.00;92.30;;;;;;5053850;28;20037;-83
2023/09/09 08:28:35;;;;;;;30.75;27.08;;;35.20;90.90;;;;;;5054281;28;20049;-81
2023/09/09 08:31:01;;;;;;;26.92;24.08;;;35.30;91.20;;;;;;5055125;28;20055;-81
2023/09/09 08:33:27;;;;;;;25.25;22.58;;;35.20;90.20;;;;;;5055779;28;20514;-82
2023/09/09 08:35:58;;;;;;;21.67;19.48;;;35.70;90.10;;;;;;5052665;28;20044;-83
2023/09/09 08:38:23;;;;;;;19.65;17.75;;;35.60;88.40;;;;;;5055551;28;20045;-82
2023/09/09 08:41:05;;;;;;;19.83;15.68;;;35.90;88.10;;;;;;5040397;28;20479;-82
2023/09/09 08:44:03;;;;;;;15.77;13.90;;;36.30;85.20;;;;;;5056759;28;20044;-81
2023/09/09 08:46:29;;;;;;;16.75;15.05;;;36.60;85.00;;;;;;5057613;28;20044;-81
2023/09/09 08:48:57;;;;;;;19.20;17.35;;;36.90;85.40;;;;;;5055634;28;20044;-82
2023/09/09 08:51:31;;;;;;;19.25;16.80;;;37.00;84.70;;;;;;5075617;28;20075;-82
2023/09/09 08:53:58;;;;;;;20.58;17.67;;;37.10;84.80;;;;;;5074742;28;20044;-83
2023/09/09 08:56:24;;;;;;;20.35;18.23;;;37.00;84.80;;;;;;5070485;28;20430;-83
2023/09/09 08:58:50;;;;;;;21.38;19.17;;;37.10;83.70;;;;;;5057380;28;20044;-82
2023/09/09 09:01:17;;;;;;;19.98;17.98;;;37.30;85.20;;;;;;5073761;28;20546;-81
2023/09/09 09:03:45;;;;;;;20.20;17.63;;;37.50;83.80;;;;;;5056956;28;20048;-81
2023/09/09 09:06:11;;;;;;;17.92;16.23;;;37.80;84.70;;;;;;5055850;28;20052;-82
2023/09/09 09:08:37;;;;;;;18.17;14.75;;;37.60;85.20;;;;;;5056458;28;20047;-81
2023/09/09 09:11:04;;;;;;;17.23;14.77;;;37.90;82.60;;;;;;5051885;28;20079;-81
2023/09/09 09:13:33;;;;;;;12.50;11.20;;;38.10;82.20;;;;;;5065124;28;20488;-81
2023/09/09 09:16:00;;;;;;;14.15;10.35;;;38.00;79.50;;;;;;5073399;28;20033;-81
2023/09/09 09:18:26;;;;;;;14.65;10.40;;;38.20;81.80;;;;;;5072427;28;20048;-81
2023/09/09 09:20:52;;;;;;;10.13;9.13;;;38.60;79.10;;;;;;5056268;28;20045;-82
2023/09/09 09:23:18;;;;;;;9.13;8.23;;;38.80;79.70;;;;;;5055221;28;20051;-82
2023/09/09 09:25:46;;;;;;;12.10;9.77;;;38.80;78.50;;;;;;5069974;28;20040;-81
2023/09/09 09:28:13;;;;;;;9.27;8.27;;;38.80;79.60;;;;;;5055052;28;20488;-81
2023/09/09 09:30:39;;;;;;;9.07;8.18;;;38.80;78.60;;;;;;5052178;28;20037;-82
2023/09/09 09:33:04;;;;;;;12.88;9.30;;;38.80;80.00;;;;;;5070031;28;20498;-81
2023/09/09 09:35:32;;;;;;;9.55;8.55;;;38.80;78.60;;;;;;5073834;28;20048;-82
2023/09/09 09:37:57;;;;;;;12.25;9.90;;;39.00;79.00;;;;;;5054486;28;20045;-82
2023/09/09 09:40:27;;;;;;;11.38;9.15;;;39.20;79.70;;;;;;5072376;28;20049;-81
2023/09/09 09:42:53;;;;;;;21.08;14.98;;;39.20;79.10;;;;;;5053024;28;20055;-83
2023/09/09 09:45:26;;;;;;;30.02;18.90;;;39.40;79.60;;;;;;5073127;28;20033;-82
2023/09/09 09:47:53;;;;;;;10.68;8.73;;;39.70;78.60;;;;;;5055391;28;20059;-82
2023/09/09 09:50:30;;;;;;;7.78;6.97;;;39.80;76.90;;;;;;5052340;28;20044;-82
2023/09/09 09:53:01;;;;;;;8.77;7.20;;;39.50;76.50;;;;;;5071695;28;20045;-82
2023/09/09 09:55:28;;;;;;;8.52;7.57;;;39.50;76.80;;;;;;5073330;28;20033;-82
2023/09/09 09:58:05;;;;;;;7.80;6.97;;;39.60;77.90;;;;;;5070719;28;20032;-81
2023/09/09 10:00:32;;;;;;;9.40;8.50;;;40.00;77.60;;;;;;5073269;28;20040;-82
2023/09/09 10:03:00;;;;;;;12.20;10.15;;;39.80;75.50;;;;;;5052194;28;20132;-82
2023/09/09 10:05:27;;;;;;;13.70;9.95;;;40.10;76.30;;;;;;5053997;28;20037;-83
2023/09/09 10:08:14;;;;;;;10.75;7.57;;;39.80;75.50;;;;;;5034856;28;20052;-83
2023/09/09 10:11:05;;;;;;;9.27;8.00;;;39.60;76.00;;;;;;5052916;28;20045;-82
2023/09/09 10:13:49;;;;;;;9.23;7.93;;;39.90;75.90;;;;;;5047714;28;20531;-79
2023/09/09 10:16:17;;;;;;;11.80;9.85;;;39.80;75.80;;;;;;5070712;28;20040;-88
2023/09/09 10:18:44;;;;;;;12.18;10.32;;;40.00;77.00;;;;;;5053764;28;20130;-81
2023/09/09 10:21:12;;;;;;;9.23;8.32;;;40.00;77.40;;;;;;5068808;28;20476;-79
2023/09/09 10:23:39;;;;;;;11.38;8.65;;;40.00;75.50;;;;;;5071048;28;20049;-76
2023/09/09 10:26:06;;;;;;;24.45;11.30;;;40.00;74.70;;;;;;5054073;28;20177;-82
2023/09/09 10:28:33;;;;;;;10.65;9.32;;;40.00;77.00;;;;;;5071460;28;20097;-81
2023/09/09 10:31:00;;;;;;;11.52;9.25;;;40.40;74.90;;;;;;5054253;28;20071;-81
2023/09/09 10:33:28;;;;;;;10.15;9.15;;;39.90;75.20;;;;;;5054332;28;20044;-88
2023/09/09 10:35:58;;;;;;;11.95;10.23;;;39.80;75.80;;;;;;5051406;28;20472;-79
2023/09/09 10:38:25;;;;;;;10.18;8.32;;;40.00;75.80;;;;;;5054365;28;20049;-77
2023/09/09 10:40:51;;;;;;;13.60;8.30;;;40.20;75.60;;;;;;5054321;28;20040;-79
2023/09/09 10:43:17;;;;;;;11.85;8.52;;;40.20;75.60;;;;;;5072207;28;20041;-77
2023/09/09 10:45:43;;;;;;;8.40;6.32;;;40.40;75.10;;;;;;5054316;28;20145;-82
2023/09/09 10:48:10;;;;;;;9.13;6.93;;;40.50;74.00;;;;;;5053149;28;20040;-75
2023/09/09 10:51:05;;;;;;;8.45;7.47;;;40.60;73.20;;;;;;5055016;28;20040;-78
2023/09/09 10:53:32;;;;;;;6.83;6.10;;;40.40;73.90;;;;;;5073651;28;20040;-78
2023/09/09 10:56:11;;;;;;;7.18;6.30;;;40.10;72.20;;;;;;5049872;28;20287;-81
2023/09/09 10:58:40;;;;;;;8.30;7.28;;;39.80;73.30;;;;;;5035340;28;20049;-79
2023/09/09 11:01:20;;;;;;;8.15;7.28;;;39.60;74.40;;;;;;5034437;28;20064;-79
2023/09/09 11:03:51;;;;;;;8.02;7.22;;;39.90;74.10;;;;;;5050539;28;20460;-85
2023/09/09 11:06:28;;;;;;;9.38;6.82;;;39.10;74.40;;;;;;5073014;28;20044;-87
2023/09/09 11:09:00;;;;;;;8.48;6.60;;;39.60;74.90;;;;;;5047889;28;20123;-79
2023/09/09 11:11:30;;;;;;;6.85;5.53;;;39.60;75.30;;;;;;5054506;28;20090;-84
2023/09/09 11:14:02;;;;;;;6.13;5.13;;;39.40;74.50;;;;;;5050424;28;20049;-79
2023/09/09 11:16:38;;;;;;;5.82;4.60;;;39.20;72.90;;;;;;5045339;28;20052;-81
2023/09/09 11:19:07;;;;;;;8.90;5.55;;;38.90;74.30;;;;;;5072614;28;20065;-77
2023/09/09 11:21:34;;;;;;;6.00;5.00;;;38.90;74.20;;;;;;5071611;28;20535;-77
2023/09/09 11:24:02;;;;;;;10.80;5.03;;;38.90;74.60;;;;;;5049092;28;20055;-81
2023/09/09 11:26:28;;;;;;;8.05;4.47;;;39.10;74.10;;;;;;5052236;28;20052;-80
2023/09/09 11:28:55;;;;;;;7.78;4.88;;;39.20;75.10;;;;;;5052838;28;20431;-83
2023/09/09 11:31:21;;;;;;;6.25;5.22;;;39.30;75.00;;;;;;5053542;28;20036;-85
2023/09/09 11:33:47;;;;;;;7.25;4.88;;;39.20;72.20;;;;;;5052086;28;20412;-87
2023/09/09 11:36:17;;;;;;;6.20;4.85;;;39.10;74.60;;;;;;5051748;28;20083;-85
2023/09/09 11:38:44;;;;;;;6.93;5.63;;;38.70;73.20;;;;;;5048502;28;20545;-81
2023/09/09 11:41:22;;;;;;;7.38;6.03;;;38.30;74.20;;;;;;5031076;28;20099;-81
2023/09/09 11:44:03;;;;;;;6.97;4.68;;;38.20;74.10;;;;;;5052116;28;20123;-82
2023/09/09 11:46:44;;;;;;;7.70;5.68;;;38.00;75.00;;;;;;5051402;28;20048;-82
2023/09/09 11:49:11;;;;;;;6.35;5.18;;;37.90;76.50;;;;;;5051042;28;20045;-83
2023/09/09 11:51:37;;;;;;;6.65;5.05;;;38.40;75.80;;;;;;5068884;28;20048;-82
2023/09/09 11:54:06;;;;;;;6.43;5.15;;;38.50;76.30;;;;;;5048581;28;20145;-82
2023/09/09 11:56:33;;;;;;;6.47;5.75;;;38.60;76.10;;;;;;5049806;28;20041;-81
2023/09/09 11:59:05;;;;;;;8.15;5.15;;;38.80;74.50;;;;;;5036409;28;20068;-82
2023/09/09 12:01:39;;;;;;;6.45;4.45;;;38.90;73.30;;;;;;5052052;28;20544;-80
2023/09/09 12:04:06;;;;;;;;;;;38.60;70.90;;;;;;5052718;28;20495;-76
2023/09/09 12:06:33;;;;;;;5.25;4.35;;;38.20;70.80;;;;;;5069392;28;20002;-79
2023/09/09 12:08:58;;;;;;;7.13;4.53;;;38.00;72.70;;;;;;5048030;28;20033;-83
2023/09/09 12:11:24;;;;;;;4.88;4.38;;;38.20;73.70;;;;;;5052145;28;20045;-80
2023/09/09 12:13:50;;;;;;;7.20;4.15;;;38.10;73.40;;;;;;5054051;28;20115;-82
2023/09/09 12:16:16;;;;;;;4.82;3.72;;;38.10;73.70;;;;;;5071970;28;20040;-81
2023/09/09 12:18:50;;;;;;;7.20;4.82;;;38.40;74.00;;;;;;5054204;28;20137;-81
2023/09/09 12:21:15;;;;;;;6.37;4.50;;;38.70;73.70;;;;;;5053586;28;20042;-79
2023/09/09 12:23:41;;;;;;;7.07;5.20;;;39.00;74.30;;;;;;5054318;28;20578;-85
2023/09/09 12:26:18;;;;;;;6.82;4.65;;;38.70;74.10;;;;;;5072058;28;20040;-85
2023/09/09 12:29:05;;;;;;;5.93;4.88;;;38.60;73.80;;;;;;5054159;28;20515;-79
2023/09/09 12:31:33;;;;;;;6.60;5.05;;;38.70;74.60;;;;;;5053669;28;20079;-79